Time;durP1;ratioP1;P1;durP2;ratioP2;P2;SDS_P1;SDS_P2;PMS_P1;PMS_P2;Temp;Humidity;BMP_temperature;BMP_pressure;BME280_temperature;BME280_humidity;BME280_pressure;Samples;Min_cycle;Max_cycle;Signal;HPM_P1;HPM_P2
2023/01/10 00:01:50;;;;;;;944.53;878.87;;;7.20;99.90;;;;;;5034090;28;20968;-60
2023/01/10 00:04:16;;;;;;;963.28;895.53;;;7.20;99.90;;;;;;5035012;28;20391;-60
2023/01/10 00:06:41;;;;;;;954.83;888.87;;;7.20;99.90;;;;;;5036076;28;20477;-62
2023/01/10 00:09:09;;;;;;;919.67;856.00;;;7.20;99.90;;;;;;5034546;28;20402;-63
2023/01/10 00:14:19;;;;;;;922.97;860.42;;;7.20;99.90;;;;;;5035828;28;20382;-62
2023/01/10 00:16:44;;;;;;;905.30;843.35;;;7.20;99.90;;;;;;5036041;28;20391;-62
2023/01/10 00:19:10;;;;;;;926.80;863.50;;;7.30;99.90;;;;;;5034690;28;20395;-62
2023/01/10 00:21:38;;;;;;;892.75;832.45;;;7.30;99.90;;;;;;5035171;28;20433;-62
2023/01/10 00:24:16;;;;;;;860.42;803.13;;;7.30;99.90;;;;;;5037463;28;20410;-62
2023/01/10 00:26:43;;;;;;;847.10;791.00;;;7.30;99.90;;;;;;5035728;28;20403;-62
2023/01/10 00:29:09;;;;;;;867.80;810.38;;;7.30;99.90;;;;;;5036292;28;20459;-61
2023/01/10 00:31:35;;;;;;;813.23;760.23;;;7.30;99.90;;;;;;5035243;28;20391;-63
2023/01/10 00:34:01;;;;;;;847.93;792.50;;;7.30;99.90;;;;;;5034963;28;20379;-61
2023/01/10 00:36:27;;;;;;;842.10;786.30;;;7.20;99.90;;;;;;5035297;28;20912;-62
2023/01/10 00:38:52;;;;;;;819.97;767.20;;;7.20;99.90;;;;;;5034223;28;20503;-61
2023/01/10 00:44:02;;;;;;;848.83;793.00;;;7.20;99.90;;;;;;5027831;28;20505;-61
2023/01/10 00:46:28;;;;;;;839.33;784.13;;;7.20;99.90;;;;;;5027503;28;20506;-61
2023/01/10 00:48:54;;;;;;;839.07;783.90;;;7.30;99.90;;;;;;5027256;28;20516;-61
2023/01/10 00:51:20;;;;;;;814.63;761.80;;;7.30;99.90;;;;;;5027546;28;20406;-61
2023/01/10 00:53:46;;;;;;;824.63;771.10;;;7.30;99.90;;;;;;5024751;28;20516;-61
2023/01/10 00:56:12;;;;;;;827.35;772.83;;;7.20;99.90;;;;;;5024721;28;20399;-60
2023/01/10 00:58:38;;;;;;;845.38;790.72;;;7.20;99.90;;;;;;5023188;28;20394;-61
2023/01/10 01:01:04;;;;;;;865.25;808.22;;;7.20;99.90;;;;;;5024039;28;20422;-60
2023/01/10 01:03:29;;;;;;;839.40;784.20;;;7.30;99.90;;;;;;5025692;28;20490;-61
2023/01/10 01:05:55;;;;;;;803.13;751.33;;;7.30;99.90;;;;;;5027879;28;20577;-61
2023/01/10 01:08:21;;;;;;;804.63;752.47;;;7.30;99.90;;;;;;5028156;28;20488;-61
2023/01/10 01:10:47;;;;;;;780.95;730.78;;;7.30;99.90;;;;;;5029210;28;20478;-60
2023/01/10 01:13:18;;;;;;;785.50;734.63;;;7.30;99.90;;;;;;5029924;28;20383;-59
2023/01/10 01:15:44;;;;;;;791.22;740.13;;;7.20;99.90;;;;;;5030249;28;20395;-61
2023/01/10 01:18:12;;;;;;;775.42;726.25;;;7.20;99.90;;;;;;5031418;28;20391;-62
2023/01/10 01:20:39;;;;;;;724.63;679.15;;;7.30;99.90;;;;;;5031071;28;20386;-61
2023/01/10 01:23:05;;;;;;;716.72;672.70;;;7.30;99.90;;;;;;5029961;28;20829;-61
2023/01/10 01:25:31;;;;;;;740.17;693.85;;;7.20;99.90;;;;;;5028998;28;20434;-61
2023/01/10 01:27:56;;;;;;;724.93;680.10;;;7.20;99.90;;;;;;5029096;28;20391;-61
2023/01/10 01:30:23;;;;;;;743.23;696.70;;;7.20;99.90;;;;;;5028439;28;20456;-61
2023/01/10 01:32:48;;;;;;;746.00;699.17;;;7.10;99.90;;;;;;5029044;28;20452;-61
2023/01/10 01:35:15;;;;;;;755.20;706.87;;;7.00;99.90;;;;;;5031381;28;20425;-61
2023/01/10 01:37:41;;;;;;;696.63;653.88;;;7.10;99.90;;;;;;5031181;28;20401;-61
2023/01/10 01:40:13;;;;;;;702.60;659.55;;;7.10;99.90;;;;;;5034261;28;20391;-60
2023/01/10 01:42:39;;;;;;;706.65;663.20;;;7.00;99.90;;;;;;5031945;28;20461;-61
2023/01/10 01:45:08;;;;;;;715.78;671.42;;;7.00;99.90;;;;;;5031535;28;20740;-62
2023/01/10 01:47:40;;;;;;;728.63;683.42;;;6.90;99.90;;;;;;5032104;28;20391;-61
2023/01/10 01:50:20;;;;;;;747.27;700.63;;;6.90;99.90;;;;;;5030088;28;20802;-61
2023/01/10 01:52:50;;;;;;;736.42;690.03;;;6.90;99.90;;;;;;5028360;28;20728;-61
2023/01/10 01:55:16;;;;;;;737.78;691.85;;;6.90;99.90;;;;;;5030442;28;20782;-61
2023/01/10 01:57:43;;;;;;;703.60;660.17;;;6.90;99.90;;;;;;5028525;28;20410;-60
2023/01/10 02:00:10;;;;;;;711.80;667.93;;;6.90;99.90;;;;;;5031216;28;20438;-64
2023/01/10 02:02:41;;;;;;;710.07;666.13;;;7.00;99.90;;;;;;5031835;28;20546;-61
2023/01/10 02:05:10;;;;;;;703.67;660.35;;;6.90;99.90;;;;;;5032053;28;20403;-60
2023/01/10 02:07:40;;;;;;;705.15;661.75;;;7.00;99.90;;;;;;5031618;28;20410;-61
2023/01/10 02:10:20;;;;;;;708.83;665.15;;;6.90;99.90;;;;;;5031510;28;20402;-61
2023/01/10 02:12:49;;;;;;;717.85;672.92;;;6.90;99.90;;;;;;5032124;28;20448;-61
2023/01/10 02:15:16;;;;;;;710.35;666.50;;;6.90;99.90;;;;;;5031659;28;20383;-61
2023/01/10 02:17:42;;;;;;;713.03;668.33;;;6.90;99.90;;;;;;5033339;28;20398;-61
2023/01/10 02:20:12;;;;;;;710.67;666.58;;;6.90;99.90;;;;;;5033351;28;20407;-62
2023/01/10 02:22:49;;;;;;;707.63;663.60;;;6.90;99.90;;;;;;5035451;28;20664;-61
2023/01/10 02:25:33;;;;;;;709.22;665.78;;;6.90;99.90;;;;;;5035574;28;20456;-59
2023/01/10 02:28:36;;;;;;;709.38;665.78;;;6.90;99.90;;;;;;5034244;28;20380;-61
2023/01/10 02:31:05;;;;;;;706.17;662.35;;;6.90;99.90;;;;;;5033322;28;20391;-61
2023/01/10 02:33:50;;;;;;;697.45;654.92;;;6.90;99.90;;;;;;5032503;28;20906;-60
2023/01/10 02:36:26;;;;;;;665.45;625.30;;;7.00;99.90;;;;;;5032028;28;20391;-61
2023/01/10 02:39:17;;;;;;;692.17;649.50;;;7.00;99.90;;;;;;5033075;28;20461;-60
2023/01/10 02:42:05;;;;;;;671.90;630.67;;;7.00;99.90;;;;;;5030603;28;20411;-61
2023/01/10 02:44:35;;;;;;;687.97;645.95;;;6.90;99.90;;;;;;5035130;28;20456;-61
2023/01/10 02:47:06;;;;;;;695.13;652.50;;;6.90;99.90;;;;;;5036464;28;20707;-61
2023/01/10 02:49:41;;;;;;;714.45;669.83;;;6.80;99.90;;;;;;5035737;28;20448;-60
2023/01/10 02:52:07;;;;;;;723.90;678.85;;;6.80;99.90;;;;;;5035681;28;20386;-60
2023/01/10 02:54:33;;;;;;;707.90;663.72;;;6.80;99.90;;;;;;5036549;28;20403;-61
2023/01/10 02:57:29;;;;;;;710.28;666.13;;;6.80;99.90;;;;;;5035648;28;20396;-61
2023/01/10 03:00:28;;;;;;;724.17;678.85;;;6.90;99.90;;;;;;5036680;28;20391;-61
2023/01/10 03:03:32;;;;;;;722.63;677.35;;;6.80;99.90;;;;;;5037198;28;20767;-61
2023/01/10 03:06:18;;;;;;;709.05;664.97;;;6.80;99.90;;;;;;5036971;28;20450;-61
2023/01/10 03:09:15;;;;;;;710.88;666.50;;;6.90;99.90;;;;;;5036456;28;20400;-61
2023/01/10 03:11:44;;;;;;;707.33;663.50;;;6.90;99.90;;;;;;5037148;28;20413;-61
2023/01/10 03:14:29;;;;;;;715.13;671.17;;;6.90;99.90;;;;;;5038424;28;20473;-60
2023/01/10 03:17:00;;;;;;;713.10;668.47;;;6.90;99.90;;;;;;5037714;28;20399;-61
2023/01/10 03:19:37;;;;;;;711.40;667.17;;;6.90;99.90;;;;;;5037080;28;20430;-61
2023/01/10 03:22:05;;;;;;;710.78;666.42;;;6.90;99.90;;;;;;5039521;28;20387;-60
2023/01/10 03:24:37;;;;;;;702.03;658.67;;;6.90;99.90;;;;;;5037571;28;20403;-61
2023/01/10 03:27:12;;;;;;;712.85;668.60;;;6.80;99.90;;;;;;5036999;28;20404;-60
2023/01/10 03:30:05;;;;;;;713.70;669.40;;;6.80;99.90;;;;;;5038856;28;20612;-61
2023/01/10 03:32:31;;;;;;;703.35;659.97;;;6.80;99.90;;;;;;5032184;28;20565;-61
2023/01/10 03:34:59;;;;;;;704.35;660.70;;;6.80;99.90;;;;;;5038229;28;20394;-61
2023/01/10 03:37:41;;;;;;;729.30;683.72;;;6.70;99.90;;;;;;5039038;28;20390;-61
2023/01/10 03:40:27;;;;;;;711.10;666.65;;;6.70;99.90;;;;;;5037211;28;20394;-59
2023/01/10 03:45:56;;;;;;;709.10;665.40;;;6.70;99.90;;;;;;5038276;28;20505;-61
2023/01/10 03:48:25;;;;;;;714.28;669.90;;;6.80;99.90;;;;;;5036503;28;20394;-60
2023/01/10 03:50:51;;;;;;;717.55;672.97;;;6.70;99.90;;;;;;5038680;28;20390;-61
2023/01/10 03:53:17;;;;;;;714.97;670.80;;;6.60;99.90;;;;;;5035706;28;20402;-61
2023/01/10 03:55:44;;;;;;;727.67;683.05;;;6.60;99.90;;;;;;5035802;28;20389;-61
2023/01/10 03:58:09;;;;;;;730.85;685.40;;;6.60;99.90;;;;;;5036356;28;20798;-61
2023/01/10 04:00:35;;;;;;;718.47;673.93;;;6.60;99.90;;;;;;5035860;28;20402;-59
2023/01/10 04:03:01;;;;;;;730.50;685.13;;;6.70;99.90;;;;;;5035295;28;20431;-60
2023/01/10 04:05:27;;;;;;;729.95;683.63;;;6.60;99.90;;;;;;5035650;28;20395;-60
2023/01/10 04:11:15;;;;;;;725.92;680.45;;;6.60;99.90;;;;;;5034459;28;20445;-59
2023/01/10 04:13:41;;;;;;;734.33;688.43;;;6.50;99.90;;;;;;5033211;28;20725;-61
2023/01/10 04:16:07;;;;;;;729.83;683.28;;;6.50;99.90;;;;;;5033670;28;20405;-61
2023/01/10 04:18:32;;;;;;;736.67;690.20;;;6.40;99.90;;;;;;5035426;28;20387;-60
2023/01/10 04:20:58;;;;;;;739.83;693.03;;;6.50;99.90;;;;;;5034410;28;20456;-60
2023/01/10 04:23:23;;;;;;;743.30;696.17;;;6.40;99.90;;;;;;5032246;28;20407;-61
2023/01/10 04:25:49;;;;;;;734.73;688.13;;;6.40;99.90;;;;;;5033885;28;20433;-61
2023/01/10 04:28:15;;;;;;;735.23;688.83;;;6.40;99.90;;;;;;5033097;28;20478;-60
2023/01/10 04:30:40;;;;;;;735.33;689.10;;;6.40;99.90;;;;;;5033847;28;20375;-60
2023/01/10 04:33:06;;;;;;;740.97;693.60;;;6.50;99.90;;;;;;5033983;28;20389;-60
2023/01/10 04:35:32;;;;;;;744.10;697.13;;;6.40;99.90;;;;;;5034292;28;20443;-61
2023/01/10 04:37:57;;;;;;;748.20;700.43;;;6.40;99.90;;;;;;5033385;28;20441;-61
2023/01/10 04:40:23;;;;;;;740.43;693.50;;;6.40;99.90;;;;;;5036058;28;20413;-61
2023/01/10 04:42:48;;;;;;;742.67;694.67;;;6.40;99.90;;;;;;5035045;28;20420;-61
2023/01/10 04:45:16;;;;;;;733.85;687.40;;;6.50;99.90;;;;;;5034167;28;20421;-61
2023/01/10 04:47:42;;;;;;;741.63;694.55;;;6.50;99.90;;;;;;5034979;28;20422;-61
2023/01/10 04:50:08;;;;;;;741.83;694.90;;;6.50;99.90;;;;;;5035209;28;20500;-60
2023/01/10 04:52:33;;;;;;;751.45;702.92;;;6.50;99.90;;;;;;5034521;28;20383;-60
2023/01/10 04:54:59;;;;;;;725.00;679.90;;;6.40;99.90;;;;;;5034210;28;20383;-60
2023/01/10 04:57:25;;;;;;;749.08;701.28;;;6.40;99.90;;;;;;5034948;28;20390;-60
2023/01/10 04:59:50;;;;;;;736.70;690.43;;;6.40;99.90;;;;;;5035973;28;20391;-60
2023/01/10 05:02:16;;;;;;;742.87;696.00;;;6.40;99.90;;;;;;5031725;28;20422;-62
2023/01/10 05:04:41;;;;;;;734.75;688.35;;;6.40;99.90;;;;;;5032064;28;20487;-56
2023/01/10 05:07:07;;;;;;;735.40;689.63;;;6.40;99.90;;;;;;5032531;28;20487;-59
2023/01/10 05:09:32;;;;;;;731.53;686.07;;;6.30;99.90;;;;;;5033001;28;20433;-61
2023/01/10 05:11:58;;;;;;;739.58;692.85;;;6.40;99.90;;;;;;5033505;28;20690;-58
2023/01/10 05:14:24;;;;;;;735.85;689.20;;;6.40;99.90;;;;;;5031467;28;20885;-60
2023/01/10 05:16:49;;;;;;;749.00;701.67;;;6.50;99.90;;;;;;5031529;28;20667;-60
2023/01/10 05:19:15;;;;;;;751.03;703.60;;;6.40;99.90;;;;;;5028233;28;20391;-60
2023/01/10 05:21:41;;;;;;;772.67;723.65;;;6.40;99.90;;;;;;5028425;28;20389;-60
2023/01/10 05:24:08;;;;;;;778.25;728.08;;;6.30;99.90;;;;;;5027303;28;20489;-60
2023/01/10 05:26:34;;;;;;;770.80;721.90;;;6.40;99.90;;;;;;5026016;28;20415;-60
2023/01/10 05:28:59;;;;;;;749.53;702.73;;;6.40;99.90;;;;;;5027363;28;20438;-60
2023/01/10 05:31:25;;;;;;;745.73;698.77;;;6.30;99.90;;;;;;5028203;28;20479;-59
2023/01/10 05:33:50;;;;;;;735.63;689.80;;;6.40;99.90;;;;;;5029657;28;20617;-59
2023/01/10 05:36:17;;;;;;;742.63;696.60;;;6.40;99.90;;;;;;5029354;28;20423;-60
2023/01/10 05:38:44;;;;;;;730.92;685.38;;;6.40;99.90;;;;;;5030867;28;20430;-60
2023/01/10 05:41:10;;;;;;;737.70;691.92;;;6.40;99.90;;;;;;5029777;28;20456;-60
2023/01/10 05:43:35;;;;;;;747.07;699.80;;;6.40;99.90;;;;;;5030400;28;20415;-60
2023/01/10 05:46:01;;;;;;;738.70;692.60;;;6.50;99.90;;;;;;5030793;28;20526;-58
2023/01/10 05:48:26;;;;;;;749.55;701.72;;;6.50;99.90;;;;;;5032057;28;20387;-59
2023/01/10 05:50:52;;;;;;;726.50;681.33;;;6.50;99.90;;;;;;5032232;28;20779;-60
2023/01/10 05:53:19;;;;;;;737.08;690.60;;;6.50;99.90;;;;;;5030170;28;20791;-58
2023/01/10 05:55:52;;;;;;;747.23;698.70;;;6.60;99.90;;;;;;5030163;28;20437;-60
2023/01/10 05:58:18;;;;;;;735.05;688.92;;;6.50;99.90;;;;;;5025912;28;20383;-59
2023/01/10 06:00:43;;;;;;;744.85;697.10;;;6.50;99.90;;;;;;5022354;28;21211;-57
2023/01/10 06:03:09;;;;;;;741.00;694.73;;;6.40;99.90;;;;;;5022285;28;20515;-60
2023/01/10 06:05:34;;;;;;;739.10;692.57;;;6.40;99.90;;;;;;5024027;28;20813;-60
2023/01/10 06:08:00;;;;;;;730.85;685.35;;;6.40;99.90;;;;;;5022944;28;20415;-59
2023/01/10 06:10:25;;;;;;;724.83;679.47;;;6.40;99.90;;;;;;5022187;28;20405;-59
2023/01/10 06:12:51;;;;;;;727.50;682.00;;;6.30;99.90;;;;;;5024179;28;20647;-60
2023/01/10 06:15:16;;;;;;;734.40;687.42;;;6.40;99.90;;;;;;5024899;28;20382;-60
2023/01/10 06:17:43;;;;;;;752.45;704.15;;;6.40;99.90;;;;;;5025020;28;20387;-60
2023/01/10 06:20:10;;;;;;;735.60;688.65;;;6.40;99.90;;;;;;5028437;28;20868;-60
2023/01/10 06:22:38;;;;;;;746.85;698.83;;;6.40;99.90;;;;;;5030520;28;20666;-60
2023/01/10 06:25:04;;;;;;;728.30;682.17;;;6.40;99.90;;;;;;5031514;28;20448;-61
2023/01/10 06:27:29;;;;;;;743.50;696.05;;;6.40;99.90;;;;;;5030783;28;20684;-60
2023/01/10 06:29:55;;;;;;;738.25;690.92;;;6.40;99.90;;;;;;5030964;28;20379;-61
2023/01/10 06:32:21;;;;;;;748.33;700.58;;;6.40;99.90;;;;;;5031275;28;20421;-59
2023/01/10 06:34:46;;;;;;;736.67;690.10;;;6.40;99.90;;;;;;5029994;28;20379;-60
2023/01/10 06:37:12;;;;;;;727.83;681.80;;;6.30;99.90;;;;;;5030778;28;20422;-61
2023/01/10 06:39:38;;;;;;;724.92;679.10;;;6.30;99.90;;;;;;5029049;28;20414;-61
2023/01/10 06:42:04;;;;;;;739.40;692.13;;;6.30;99.90;;;;;;5027835;28;20422;-61
2023/01/10 06:44:29;;;;;;;731.00;684.95;;;6.30;99.90;;;;;;5029470;28;20391;-61
2023/01/10 06:46:55;;;;;;;725.33;680.03;;;6.20;99.90;;;;;;5028659;28;20399;-61
2023/01/10 06:49:21;;;;;;;725.20;679.60;;;6.20;99.90;;;;;;5026570;28;20561;-61
2023/01/10 06:51:46;;;;;;;756.03;707.37;;;6.20;99.90;;;;;;5025376;28;20390;-61
2023/01/10 06:54:12;;;;;;;745.87;698.40;;;6.30;99.90;;;;;;5021763;28;20648;-61
2023/01/10 06:56:37;;;;;;;745.55;697.78;;;6.20;99.90;;;;;;5022232;28;20409;-60
2023/01/10 06:59:03;;;;;;;739.58;692.78;;;6.20;99.90;;;;;;5023012;28;20419;-61
2023/01/10 07:01:28;;;;;;;760.03;710.90;;;6.20;99.90;;;;;;5021439;28;20671;-61
2023/01/10 07:03:54;;;;;;;746.87;698.93;;;6.20;99.90;;;;;;5019347;28;20434;-61
2023/01/10 07:06:20;;;;;;;737.35;690.50;;;6.10;99.90;;;;;;5017840;28;20825;-61
2023/01/10 07:08:45;;;;;;;743.17;695.75;;;6.10;99.90;;;;;;5018069;28;20409;-59
2023/01/10 07:11:14;;;;;;;734.20;687.63;;;6.10;99.90;;;;;;5016831;28;20398;-61
2023/01/10 07:13:40;;;;;;;732.70;686.13;;;6.10;99.90;;;;;;5016136;28;20980;-61
2023/01/10 07:16:07;;;;;;;725.87;680.33;;;6.10;99.90;;;;;;5018391;28;20675;-61
2023/01/10 07:18:37;;;;;;;721.15;676.05;;;6.10;99.90;;;;;;5020344;28;20394;-61
2023/01/10 07:21:03;;;;;;;712.17;668.35;;;6.10;99.90;;;;;;5025662;28;20694;-62
2023/01/10 07:23:32;;;;;;;715.45;670.63;;;6.10;99.90;;;;;;5023089;28;20413;-61
2023/01/10 07:26:01;;;;;;;726.17;680.70;;;6.10;99.90;;;;;;5022819;28;20694;-61
2023/01/10 07:28:27;;;;;;;732.67;686.20;;;6.10;99.90;;;;;;5025042;28;20678;-61
2023/01/10 07:30:53;;;;;;;741.67;694.30;;;6.10;99.90;;;;;;5020077;28;20527;-61
2023/01/10 07:33:18;;;;;;;731.20;685.03;;;6.10;99.90;;;;;;5021937;28;20376;-61
2023/01/10 07:35:44;;;;;;;746.93;699.07;;;6.10;99.90;;;;;;5022880;28;20387;-61
2023/01/10 07:38:09;;;;;;;751.47;703.43;;;6.10;99.90;;;;;;5022097;28;20437;-61
2023/01/10 07:40:35;;;;;;;746.00;697.97;;;6.20;99.90;;;;;;5025097;28;20399;-61
2023/01/10 07:43:02;;;;;;;740.47;692.95;;;6.20;99.90;;;;;;5026982;28;20478;-60
2023/01/10 07:45:29;;;;;;;743.35;696.22;;;6.20;99.90;;;;;;5027017;28;20399;-61
2023/01/10 07:47:56;;;;;;;736.58;689.28;;;6.30;99.90;;;;;;5024853;28;20447;-61
2023/01/10 07:50:22;;;;;;;735.78;689.20;;;6.20;99.90;;;;;;5022603;28;20663;-61
2023/01/10 07:52:47;;;;;;;726.70;681.27;;;6.20;99.90;;;;;;5022513;28;20411;-60
2023/01/10 07:55:13;;;;;;;722.53;677.43;;;6.20;99.90;;;;;;5021692;28;20922;-60
2023/01/10 07:57:38;;;;;;;737.60;691.33;;;6.20;99.90;;;;;;5020427;28;20403;-61
2023/01/10 08:00:05;;;;;;;727.05;681.88;;;6.20;99.90;;;;;;5022697;28;20422;-61
2023/01/10 08:02:30;;;;;;;733.13;686.67;;;6.20;99.90;;;;;;5023412;28;20418;-60
2023/01/10 08:04:56;;;;;;;745.38;697.80;;;6.30;99.90;;;;;;5025145;28;20986;-61
2023/01/10 08:07:21;;;;;;;741.37;694.13;;;6.30;99.90;;;;;;5022628;28;20599;-61
2023/01/10 08:09:47;;;;;;;718.37;673.90;;;6.30;99.90;;;;;;5022160;28;20913;-61
2023/01/10 08:12:12;;;;;;;742.93;695.90;;;6.20;99.90;;;;;;5022710;28;20518;-61
2023/01/10 08:14:38;;;;;;;720.53;675.22;;;6.30;99.90;;;;;;5020925;28;20662;-61
2023/01/10 08:17:03;;;;;;;742.05;695.33;;;6.30;99.90;;;;;;5019416;28;20391;-61
2023/01/10 08:19:29;;;;;;;749.03;701.73;;;6.30;99.90;;;;;;5019394;28;20415;-61
2023/01/10 08:21:55;;;;;;;739.17;692.30;;;6.30;99.90;;;;;;5018107;28;20397;-61
2023/01/10 08:24:21;;;;;;;753.78;706.53;;;6.20;99.90;;;;;;5020886;28;20528;-61
2023/01/10 08:26:47;;;;;;;755.07;707.73;;;6.30;99.90;;;;;;5020003;28;20539;-62
2023/01/10 08:29:14;;;;;;;741.92;695.65;;;6.30;99.90;;;;;;5017629;28;20390;-61
2023/01/10 08:31:40;;;;;;;732.80;686.67;;;6.40;99.90;;;;;;5017351;28;20451;-60
2023/01/10 08:34:06;;;;;;;725.88;680.58;;;6.40;99.90;;;;;;5019528;28;20652;-58
2023/01/10 08:36:31;;;;;;;716.58;671.55;;;6.40;99.90;;;;;;5020285;28;20491;-61
2023/01/10 08:38:57;;;;;;;732.17;686.30;;;6.40;99.90;;;;;;5021317;28;20386;-60
2023/01/10 08:41:23;;;;;;;723.15;677.97;;;6.40;99.90;;;;;;5019355;28;20472;-60
2023/01/10 08:43:49;;;;;;;730.40;684.43;;;6.40;99.90;;;;;;5021800;28;20391;-60
2023/01/10 08:46:15;;;;;;;732.90;686.38;;;6.40;99.90;;;;;;5021987;28;20463;-60
2023/01/10 08:48:41;;;;;;;738.10;690.78;;;6.40;99.90;;;;;;5020871;28;20452;-60
2023/01/10 08:51:08;;;;;;;732.67;685.83;;;6.40;99.90;;;;;;5018060;28;20383;-60
2023/01/10 08:53:34;;;;;;;731.00;684.80;;;6.40;99.90;;;;;;5016754;28;20493;-60
2023/01/10 08:56:00;;;;;;;714.25;669.30;;;6.40;99.90;;;;;;5017421;28;20402;-59
2023/01/10 08:58:26;;;;;;;745.45;697.67;;;6.50;99.90;;;;;;5016063;28;20390;-60
2023/01/10 09:00:52;;;;;;;731.33;685.22;;;6.50;99.90;;;;;;5019814;28;20387;-60
2023/01/10 09:03:20;;;;;;;710.85;666.53;;;6.50;99.90;;;;;;5018463;28;20403;-60
2023/01/10 09:05:45;;;;;;;746.00;699.23;;;6.40;99.90;;;;;;5020027;28;20642;-60
2023/01/10 09:08:11;;;;;;;754.03;705.73;;;6.40;99.90;;;;;;5016931;28;20398;-60
2023/01/10 09:10:37;;;;;;;738.27;690.80;;;6.40;99.90;;;;;;5019015;28;20793;-60
2023/01/10 09:13:03;;;;;;;757.95;709.92;;;6.40;99.90;;;;;;5020300;28;20451;-60
2023/01/10 09:15:35;;;;;;;746.15;699.17;;;6.40;99.90;;;;;;5018965;28;20605;-60
2023/01/10 09:18:06;;;;;;;721.65;676.50;;;6.50;99.90;;;;;;5017149;28;20386;-60
2023/01/10 09:20:34;;;;;;;740.57;693.30;;;6.60;99.90;;;;;;5014390;28;20395;-60
2023/01/10 09:23:18;;;;;;;722.35;676.58;;;6.60;99.90;;;;;;5014541;28;20403;-60
2023/01/10 09:25:49;;;;;;;727.00;680.93;;;6.70;99.90;;;;;;5015231;28;20574;-60
2023/01/10 09:28:17;;;;;;;727.88;681.60;;;6.70;99.90;;;;;;5016817;28;20588;-60
2023/01/10 09:30:44;;;;;;;726.78;680.38;;;6.70;99.90;;;;;;5020166;28;20387;-60
2023/01/10 09:33:10;;;;;;;725.37;679.07;;;6.60;99.90;;;;;;5022831;28;20470;-60
2023/01/10 09:35:38;;;;;;;738.95;692.10;;;6.60;99.90;;;;;;5023679;28;20406;-60
2023/01/10 09:38:06;;;;;;;721.47;675.95;;;6.70;99.90;;;;;;5023157;28;20403;-60
2023/01/10 09:40:58;;;;;;;724.42;678.92;;;6.70;99.90;;;;;;5024269;28;20390;-60
2023/01/10 09:43:45;;;;;;;721.53;675.63;;;6.80;99.90;;;;;;5023170;28;20434;-60
2023/01/10 09:46:33;;;;;;;711.15;666.70;;;6.90;99.90;;;;;;5026783;28;20398;-59
2023/01/10 09:49:23;;;;;;;708.65;664.17;;;6.90;99.90;;;;;;5025810;28;20656;-59
2023/01/10 09:51:55;;;;;;;700.90;657.22;;;6.90;99.90;;;;;;5026299;28;20391;-60
2023/01/10 09:54:30;;;;;;;725.70;680.50;;;6.80;99.90;;;;;;5030135;28;20399;-60
2023/01/10 09:56:59;;;;;;;717.33;672.47;;;6.70;99.90;;;;;;5030858;28;20394;-61
2023/01/10 09:59:34;;;;;;;739.38;692.80;;;6.70;99.90;;;;;;5032507;28;20383;-61
2023/01/10 10:02:15;;;;;;;766.47;718.03;;;6.60;99.90;;;;;;5032580;28;20378;-62
2023/01/10 10:04:45;;;;;;;741.93;695.07;;;6.60;99.90;;;;;;5034016;28;20483;-61
2023/01/10 10:07:16;;;;;;;743.50;696.60;;;6.60;99.90;;;;;;5033607;28;20463;-62
2023/01/10 10:09:42;;;;;;;749.67;701.50;;;6.60;99.90;;;;;;5035412;28;20470;-61
2023/01/10 10:12:57;;;;;;;763.95;715.33;;;6.60;99.90;;;;;;5035500;28;20387;-61
2023/01/10 10:15:38;;;;;;;740.88;693.58;;;6.60;99.90;;;;;;5022160;28;20386;-62
2023/01/10 10:18:06;;;;;;;746.50;698.60;;;6.70;99.90;;;;;;5034903;28;20389;-60
2023/01/10 10:21:15;;;;;;;769.90;720.08;;;6.70;99.90;;;;;;5033840;28;20402;-60
2023/01/10 10:23:50;;;;;;;756.28;707.85;;;6.80;99.90;;;;;;5033293;28;20391;-61
2023/01/10 10:26:31;;;;;;;728.23;682.13;;;7.00;99.90;;;;;;5032206;28;20414;-62
2023/01/10 10:28:56;;;;;;;710.13;665.85;;;6.90;99.90;;;;;;5030418;28;20390;-62
2023/01/10 10:31:44;;;;;;;724.37;678.47;;;6.80;99.90;;;;;;5031175;28;20391;-62
2023/01/10 10:34:35;;;;;;;727.75;681.55;;;6.80;99.90;;;;;;5030119;28;20406;-62
2023/01/10 10:37:34;;;;;;;708.20;663.00;;;6.80;99.90;;;;;;5030478;28;20383;-62
2023/01/10 10:40:13;;;;;;;719.47;673.80;;;6.80;99.90;;;;;;5029549;28;20827;-61
2023/01/10 10:42:46;;;;;;;708.03;663.72;;;6.70;99.90;;;;;;5029131;28;20450;-61
2023/01/10 10:45:21;;;;;;;728.95;682.50;;;6.70;99.90;;;;;;5028468;28;20515;-61
2023/01/10 10:48:13;;;;;;;713.75;668.70;;;6.80;99.90;;;;;;5029905;28;20376;-60
2023/01/10 10:50:53;;;;;;;720.63;675.13;;;6.80;99.90;;;;;;5025757;28;20390;-62
2023/01/10 10:53:20;;;;;;;720.35;674.45;;;6.80;99.90;;;;;;5028848;28;20403;-62
2023/01/10 10:55:47;;;;;;;722.75;677.20;;;6.80;99.90;;;;;;5030192;28;20802;-61
2023/01/10 10:58:13;;;;;;;710.70;665.88;;;6.80;99.90;;;;;;5032295;28;20387;-61
2023/01/10 11:00:40;;;;;;;707.70;663.65;;;6.90;99.90;;;;;;5033095;28;20391;-61
2023/01/10 11:03:38;;;;;;;717.53;672.10;;;6.90;99.90;;;;;;5034351;28;20395;-62
2023/01/10 11:06:06;;;;;;;713.20;667.92;;;6.80;99.90;;;;;;5027253;28;20403;-61
2023/01/10 11:08:41;;;;;;;716.83;671.43;;;6.90;99.90;;;;;;5036141;28;20402;-62
2023/01/10 11:11:25;;;;;;;715.00;670.08;;;6.80;99.90;;;;;;5033101;28;20784;-61
2023/01/10 11:14:02;;;;;;;711.50;666.97;;;6.90;99.90;;;;;;5033337;28;20641;-61
2023/01/10 11:16:32;;;;;;;699.60;656.15;;;6.90;99.90;;;;;;5050437;28;20395;-61
2023/01/10 11:19:25;;;;;;;702.22;658.05;;;6.90;99.90;;;;;;5034506;28;20411;-60
2023/01/10 11:21:58;;;;;;;719.67;673.92;;;7.00;99.90;;;;;;5030826;28;20395;-61
2023/01/10 11:24:28;;;;;;;691.70;648.63;;;7.00;99.90;;;;;;5031995;28;20410;-61
2023/01/10 11:26:56;;;;;;;718.38;673.08;;;6.90;99.90;;;;;;5031693;28;20630;-61
2023/01/10 11:29:27;;;;;;;700.65;656.50;;;7.00;99.90;;;;;;5030925;28;20379;-61
2023/01/10 11:31:55;;;;;;;691.05;648.40;;;7.10;99.90;;;;;;5031438;28;20397;-61
2023/01/10 11:34:28;;;;;;;688.22;644.58;;;7.10;99.90;;;;;;5028218;28;20787;-61
2023/01/10 11:37:00;;;;;;;684.67;642.15;;;7.10;99.90;;;;;;5028548;28;20767;-62
2023/01/10 11:39:28;;;;;;;671.27;629.77;;;7.10;99.90;;;;;;5026361;28;20432;-61
2023/01/10 11:41:55;;;;;;;680.83;638.03;;;7.20;99.90;;;;;;5024880;28;20412;-61
2023/01/10 11:44:25;;;;;;;677.72;635.13;;;7.10;99.90;;;;;;5024991;28;20493;-61
2023/01/10 11:46:58;;;;;;;658.92;618.13;;;7.10;99.90;;;;;;5028904;28;20418;-61
2023/01/10 11:49:44;;;;;;;671.15;629.55;;;7.10;99.90;;;;;;5029643;28;20818;-61
2023/01/10 11:52:23;;;;;;;700.42;656.47;;;7.10;99.90;;;;;;5028281;28;20415;-61
2023/01/10 11:54:49;;;;;;;687.40;644.72;;;7.10;99.90;;;;;;5030007;28;20486;-61
2023/01/10 11:57:23;;;;;;;700.28;656.72;;;7.00;99.90;;;;;;5028816;28;20466;-61
2023/01/10 12:00:00;;;;;;;694.42;651.90;;;7.00;99.90;;;;;;5027367;28;20815;-61
2023/01/10 12:02:45;;;;;;;734.17;688.17;;;7.10;99.90;;;;;;5027164;28;20510;-60
2023/01/10 12:05:22;;;;;;;770.90;721.15;;;7.20;99.90;;;;;;5029891;28;20835;-61
2023/01/10 12:07:58;;;;;;;691.83;649.17;;;7.30;99.90;;;;;;5028821;28;20395;-60
2023/01/10 12:10:27;;;;;;;710.85;666.20;;;7.20;99.90;;;;;;5027636;28;20401;-60
2023/01/10 12:12:58;;;;;;;720.95;675.63;;;7.20;99.90;;;;;;5026404;28;20407;-60
2023/01/10 12:15:26;;;;;;;713.83;669.22;;;7.20;99.90;;;;;;5026498;28;20407;-60
2023/01/10 12:17:54;;;;;;;695.22;651.97;;;7.20;99.90;;;;;;5026053;28;20794;-60
2023/01/10 12:20:22;;;;;;;712.33;667.30;;;7.20;99.90;;;;;;5024357;28;20455;-61
2023/01/10 12:22:56;;;;;;;699.92;656.28;;;7.30;99.90;;;;;;5024453;28;20828;-60
2023/01/10 12:25:34;;;;;;;674.75;632.88;;;7.30;99.90;;;;;;5027046;28;20378;-60
2023/01/10 12:28:02;;;;;;;663.17;621.80;;;7.40;99.90;;;;;;5026310;28;20477;-60
2023/01/10 12:30:33;;;;;;;664.20;623.55;;;7.40;99.90;;;;;;5028720;28;20389;-60
2023/01/10 12:33:11;;;;;;;669.25;628.45;;;7.40;99.90;;;;;;5025893;28;21074;-60
2023/01/10 12:36:04;;;;;;;657.25;616.72;;;7.40;99.90;;;;;;5025922;28;20430;-61
2023/01/10 12:39:23;;;;;;;699.37;655.13;;;7.40;99.90;;;;;;5025830;28;20451;-60
2023/01/10 12:44:35;;;;;;;673.70;632.20;;;7.40;99.90;;;;;;5022872;28;20410;-60
2023/01/10 12:47:38;;;;;;;688.97;645.00;;;7.50;99.90;;;;;;5024239;28;20403;-60
2023/01/10 12:50:29;;;;;;;687.05;643.67;;;7.40;99.90;;;;;;5022779;28;20498;-60